createdAt,value
2018-12-25T00:02:37.525Z,1.51
2018-12-25T00:05:27.660Z,1.48
2018-12-25T00:08:17.778Z,1.48
2018-12-25T00:11:07.731Z,1.45
2018-12-25T00:13:57.496Z,1.52
2018-12-25T00:16:47.284Z,1.46
2018-12-25T00:19:29.568Z,1.48
2018-12-25T00:22:19.353Z,1.48
2018-12-25T00:25:09.256Z,1.47
2018-12-25T00:27:59.274Z,1.47
2018-12-25T00:30:48.884Z,1.43
2018-12-25T00:33:38.834Z,1.45
2018-12-25T00:36:28.750Z,1.38
2018-12-25T00:39:18.506Z,1.29
2018-12-25T00:42:27.309Z,1.19
2018-12-25T00:45:18.373Z,1.11
2018-12-25T00:48:08.663Z,1.05
2018-12-25T00:50:58.661Z,0.94
2018-12-25T00:54:07.551Z,0.88
2018-12-25T00:56:57.488Z,0.80
2018-12-25T00:59:47.522Z,0.73
2018-12-25T01:02:37.367Z,0.74
2018-12-25T01:08:36.464Z,0.63
2018-12-25T01:11:26.793Z,0.50
2018-12-25T01:14:16.694Z,0.44
2018-12-25T01:17:06.493Z,0.36
2018-12-25T01:19:56.259Z,0.33
2018-12-25T01:22:46.388Z,0.30
2018-12-25T01:25:36.269Z,0.22
2018-12-25T01:28:26.460Z,0.14
2018-12-25T01:31:16.582Z,0.13
2018-12-25T01:34:06.332Z,0.18
2018-12-25T01:36:56.168Z,0.30
2018-12-25T01:39:46.141Z,0.40
2018-12-25T01:45:31.526Z,0.50
2018-12-25T01:48:21.691Z,0.52
2018-12-25T01:51:11.863Z,0.47
2018-12-25T01:54:01.690Z,0.41
2018-12-25T01:56:51.837Z,0.50
2018-12-25T01:59:41.657Z,0.57
2018-12-25T02:02:31.809Z,0.65
2018-12-25T02:05:22.064Z,0.62
2018-12-25T02:08:31.084Z,0.56
2018-12-25T02:11:02.140Z,0.47
2018-12-25T02:13:33.087Z,0.39
2018-12-25T02:16:03.922Z,0.34
2018-12-25T02:18:47.521Z,0.19
2018-12-25T02:21:37.290Z,0.16
2018-12-25T02:24:27.126Z,0.04
2018-12-25T02:27:17.256Z,-0.08
2018-12-25T02:30:26.402Z,-0.15
2018-12-25T02:33:16.175Z,-0.17
2018-12-25T02:36:06.037Z,-0.20
2018-12-25T02:38:56.225Z,-0.15
2018-12-25T02:41:46.108Z,-0.19
2018-12-25T02:44:35.917Z,-0.23
2018-12-25T02:47:26.870Z,-0.25
2018-12-25T02:50:16.793Z,-0.34
2018-12-25T02:53:06.621Z,-0.49
2018-12-25T02:55:56.472Z,-0.66
2018-12-25T02:59:05.559Z,-0.85
2018-12-25T03:05:04.064Z,-0.93
2018-12-25T03:07:53.800Z,-0.76
2018-12-25T03:10:43.638Z,-0.68
2018-12-25T03:13:33.403Z,-0.71
2018-12-25T03:16:23.146Z,-0.67
2018-12-25T03:19:05.152Z,-0.65
2018-12-25T03:21:54.887Z,-0.63
2018-12-25T03:24:44.640Z,-0.55
2018-12-25T03:27:34.651Z,-0.51
2018-12-25T03:30:24.396Z,-0.55
2018-12-25T03:33:14.542Z,-0.62
2018-12-25T03:36:04.428Z,-0.64
2018-12-25T03:38:54.173Z,-0.73
2018-12-25T03:41:43.914Z,-0.85
2018-12-25T03:44:33.918Z,-0.97
2018-12-25T03:47:24.104Z,-1.04
2018-12-25T03:50:13.869Z,-0.98
2018-12-25T03:53:03.696Z,-1.02
2018-12-25T03:55:53.705Z,-1.06
2018-12-25T03:58:43.527Z,-1.16
2018-12-25T04:04:28.505Z,-1.07
2018-12-25T04:07:18.252Z,-1.03
2018-12-25T04:10:08.388Z,-0.97
2018-12-25T04:12:58.753Z,-0.90
2018-12-25T04:15:48.501Z,-0.97
2018-12-25T04:18:31.289Z,-1.02
2018-12-25T04:21:21.039Z,-0.98
2018-12-25T04:24:10.792Z,-0.96
2018-12-25T04:27:00.844Z,-0.84
2018-12-25T04:29:51.109Z,-0.79
2018-12-25T04:32:41.818Z,-0.75
2018-12-25T04:35:31.904Z,-0.72
2018-12-25T04:38:22.294Z,-0.76
2018-12-25T04:41:12.112Z,-0.80
2018-12-25T04:44:01.880Z,-0.77
2018-12-25T04:46:51.627Z,-0.77
2018-12-25T04:49:41.655Z,-0.72
2018-12-25T04:52:31.401Z,-0.65
2018-12-25T04:55:21.161Z,-0.58
2018-12-25T04:58:10.907Z,-0.39
2018-12-25T05:01:01.045Z,-0.41
2018-12-25T05:03:50.871Z,-0.42
2018-12-25T05:06:41.324Z,-0.37
2018-12-25T05:09:31.218Z,-0.35
2018-12-25T05:15:15.880Z,-0.24
2018-12-25T05:17:58.335Z,-0.26
2018-12-25T05:23:44.166Z,-0.33
2018-12-25T05:26:34.589Z,-0.40
2018-12-25T05:29:24.340Z,-0.40
2018-12-25T05:32:14.334Z,-0.40
2018-12-25T05:35:04.156Z,-0.40
2018-12-25T05:37:53.919Z,-0.39
2018-12-25T05:43:53.034Z,-0.40
2018-12-25T05:46:42.823Z,-0.42
2018-12-25T05:49:33.027Z,-0.36
2018-12-25T05:52:22.870Z,-0.24
2018-12-25T05:55:12.606Z,-0.32
2018-12-25T05:58:02.343Z,-0.38
2018-12-25T06:00:52.513Z,-0.41
2018-12-25T06:03:42.273Z,-0.45
2018-12-25T06:06:32.206Z,-0.48
2018-12-25T06:09:21.946Z,-0.47
2018-12-25T06:12:11.725Z,-0.41
2018-12-25T06:15:01.473Z,-0.42
2018-12-25T06:17:44.183Z,-0.43
2018-12-25T06:20:55.237Z,-0.44
2018-12-25T06:23:44.446Z,-0.45
2018-12-25T06:26:34.195Z,-0.43
2018-12-25T06:32:19.236Z,-0.42
2018-12-25T06:35:09.020Z,-0.46
2018-12-25T06:37:59.097Z,-0.40
2018-12-25T06:40:48.866Z,-0.35
2018-12-25T06:43:38.906Z,-0.36
2018-12-25T06:46:28.756Z,-0.41
2018-12-25T06:49:18.564Z,-0.46
2018-12-25T06:55:18.626Z,-0.49
2018-12-25T06:58:08.446Z,-0.49
2018-12-25T07:00:58.873Z,-0.40
2018-12-25T07:03:48.955Z,-0.36
2018-12-25T07:06:39.034Z,-0.38
2018-12-25T07:09:29.098Z,-0.36
2018-12-25T07:12:18.842Z,-0.40
2018-12-25T07:15:09.319Z,-0.36
2018-12-25T07:17:52.045Z,-0.32
2018-12-25T07:20:42.135Z,-0.35
2018-12-25T07:23:31.919Z,-0.32
2018-12-25T07:26:22.478Z,-0.29
2018-12-25T07:29:12.650Z,-0.31
2018-12-25T07:32:02.721Z,-0.33
2018-12-25T07:34:52.738Z,-0.32
2018-12-25T07:37:42.555Z,-0.30
2018-12-25T07:40:32.297Z,-0.21
2018-12-25T07:43:22.389Z,-0.16
2018-12-25T07:49:21.582Z,-0.17
2018-12-25T07:52:11.420Z,-0.23
2018-12-25T07:55:01.623Z,-0.17
2018-12-25T07:57:51.864Z,-0.18
2018-12-25T08:00:41.701Z,-0.12
2018-12-25T08:03:31.852Z,-0.04
2018-12-25T08:06:21.845Z,0.04
2018-12-25T08:09:11.616Z,0.10
2018-12-25T08:12:02.015Z,0.07
2018-12-25T08:14:53.105Z,0.03
2018-12-25T08:17:42.989Z,-0.01
2018-12-25T08:20:33.149Z,0.08
2018-12-25T08:23:22.902Z,0.12
2018-12-25T08:26:13.271Z,0.01
2018-12-25T08:29:03.039Z,-0.04
2018-12-25T08:31:53.269Z,-0.06
2018-12-25T08:34:43.320Z,-0.04
2018-12-25T08:37:33.401Z,0.09
2018-12-25T08:40:23.527Z,0.07
2018-12-25T08:43:13.979Z,0.11
2018-12-25T08:46:04.214Z,0.26
2018-12-25T08:48:53.950Z,0.26
2018-12-25T08:51:44.334Z,0.23
2018-12-25T08:57:43.086Z,0.53
2018-12-25T09:00:33.199Z,0.62
2018-12-25T09:03:23.274Z,0.48
2018-12-25T09:06:13.502Z,0.55
2018-12-25T09:12:13.641Z,0.61
2018-12-25T09:15:03.716Z,0.69
2018-12-25T09:17:46.612Z,0.56
2018-12-25T09:20:36.354Z,0.54
2018-12-25T09:23:26.128Z,0.59
2018-12-25T09:26:16.171Z,0.65
2018-12-25T09:29:06.246Z,0.58
2018-12-25T09:31:56.076Z,0.60
2018-12-25T09:34:45.883Z,0.51
2018-12-25T09:37:36.084Z,0.48
2018-12-25T09:40:26.129Z,0.71
2018-12-25T09:43:16.237Z,0.90
2018-12-25T09:46:06.605Z,0.98
2018-12-25T09:48:56.328Z,1.10
2018-12-25T09:51:46.069Z,1.03
2018-12-25T09:54:36.106Z,0.86
2018-12-25T09:57:26.137Z,0.76
2018-12-25T10:00:15.865Z,0.94
2018-12-25T10:03:05.680Z,1.15
2018-12-25T10:05:55.419Z,1.12
2018-12-25T10:08:45.175Z,1.37
2018-12-25T10:11:34.917Z,1.42
2018-12-25T10:14:24.703Z,1.56
2018-12-25T10:17:14.504Z,1.43
2018-12-25T10:19:57.197Z,0.99
2018-12-25T10:22:47.267Z,1.09
2018-12-25T10:25:37.617Z,1.18
2018-12-25T10:28:27.886Z,1.18
2018-12-25T10:31:17.848Z,1.19
2018-12-25T10:34:07.576Z,1.13
2018-12-25T10:36:57.307Z,1.12
2018-12-25T10:39:47.046Z,1.12
2018-12-25T10:42:37.059Z,1.25
2018-12-25T10:45:26.869Z,1.41
2018-12-25T10:48:16.994Z,1.54
2018-12-25T10:51:06.726Z,1.40
2018-12-25T10:53:56.550Z,1.32
2018-12-25T10:56:46.346Z,1.37
2018-12-25T10:59:36.092Z,1.31
2018-12-25T11:02:26.108Z,1.37
2018-12-25T11:05:15.850Z,1.34
2018-12-25T11:08:05.579Z,1.48
2018-12-25T11:10:55.316Z,1.55
2018-12-25T11:13:45.122Z,1.47
2018-12-25T11:16:34.937Z,1.59
2018-12-25T11:19:17.711Z,1.65
2018-12-25T11:22:07.478Z,1.56
2018-12-25T11:24:57.219Z,1.53
2018-12-25T11:27:47.259Z,1.42
2018-12-25T11:30:36.994Z,1.43
2018-12-25T11:33:26.730Z,1.46
2018-12-25T11:36:16.553Z,1.53
2018-12-25T11:39:46.703Z,1.45
2018-12-25T11:42:36.540Z,1.50
2018-12-25T11:45:26.597Z,1.56
2018-12-25T11:51:25.163Z,1.55
2018-12-25T11:54:14.885Z,1.61
2018-12-25T11:57:04.769Z,1.55
2018-12-25T11:59:54.493Z,1.55
2018-12-25T12:02:44.310Z,1.55
2018-12-25T12:05:34.128Z,1.52
2018-12-25T12:08:23.858Z,1.58
2018-12-25T12:11:13.863Z,1.57
2018-12-25T12:14:03.671Z,1.54
2018-12-25T12:17:12.197Z,1.55
2018-12-25T12:19:55.107Z,1.54
2018-12-25T12:22:44.852Z,1.60
2018-12-25T12:25:34.863Z,1.76
2018-12-25T12:28:24.835Z,1.77
2018-12-25T12:31:14.645Z,1.72
2018-12-25T12:34:04.456Z,1.70
2018-12-25T12:36:54.257Z,1.62
2018-12-25T12:39:43.990Z,1.67
2018-12-25T12:42:34.090Z,1.62
2018-12-25T12:45:24.485Z,1.71
2018-12-25T12:48:14.574Z,1.75
2018-12-25T12:54:13.283Z,1.69
2018-12-25T12:57:03.050Z,1.72
2018-12-25T12:59:52.771Z,1.72
2018-12-25T13:02:42.510Z,1.70
2018-12-25T13:05:32.227Z,1.71
2018-12-25T13:08:22.283Z,1.63
2018-12-25T13:11:12.003Z,1.58
2018-12-25T13:14:01.740Z,1.55
2018-12-25T13:16:51.651Z,1.61
2018-12-25T13:19:34.418Z,1.61
2018-12-25T13:22:24.440Z,1.54
2018-12-25T13:25:14.406Z,1.57
2018-12-25T13:28:04.139Z,1.52
2018-12-25T13:30:53.864Z,1.53
2018-12-25T13:33:43.682Z,1.55
2018-12-25T13:36:33.407Z,1.56
2018-12-25T13:39:23.410Z,1.56
2018-12-25T13:42:13.216Z,1.56
2018-12-25T13:45:02.967Z,1.61
2018-12-25T13:47:53.111Z,1.74
2018-12-25T13:50:42.996Z,1.74
2018-12-25T13:53:32.736Z,1.70
2018-12-25T13:56:22.804Z,1.74
2018-12-25T13:59:12.542Z,1.68
2018-12-25T14:02:02.272Z,1.68
2018-12-25T14:07:47.529Z,1.64
2018-12-25T14:10:37.337Z,1.64
2018-12-25T14:13:27.427Z,1.71
2018-12-25T14:16:17.162Z,1.69
2018-12-25T14:18:59.666Z,1.74
2018-12-25T14:21:49.392Z,1.74
2018-12-25T14:24:39.215Z,1.74
2018-12-25T14:27:28.936Z,1.71
2018-12-25T14:30:19.030Z,1.77
2018-12-25T14:33:10.964Z,1.77
2018-12-25T14:36:00.791Z,1.71
2018-12-25T14:38:50.518Z,1.73
2018-12-25T14:41:40.254Z,1.71
2018-12-25T14:44:30.331Z,1.74
2018-12-25T14:47:20.430Z,1.68
2018-12-25T14:50:10.268Z,1.72
2018-12-25T14:52:59.992Z,1.72
2018-12-25T14:55:49.805Z,1.70
2018-12-25T14:58:39.529Z,1.63
2018-12-25T15:01:29.273Z,1.64
2018-12-25T15:04:19.000Z,1.68
2018-12-25T15:07:09.156Z,1.71
2018-12-25T15:09:58.871Z,1.68
2018-12-25T15:12:48.953Z,1.67
2018-12-25T15:15:38.715Z,1.64
2018-12-25T15:18:20.815Z,1.59
2018-12-25T15:21:10.552Z,1.60
2018-12-25T15:24:00.301Z,1.57
2018-12-25T15:26:50.045Z,1.52
2018-12-25T15:29:39.767Z,1.52
2018-12-25T15:32:29.523Z,1.48
2018-12-25T15:35:19.867Z,1.48
2018-12-25T15:38:09.591Z,1.46
2018-12-25T15:40:59.697Z,1.41
2018-12-25T15:43:49.436Z,1.47
2018-12-25T15:46:39.510Z,1.49
2018-12-25T15:49:29.593Z,1.47
2018-12-25T15:52:19.981Z,1.48
2018-12-25T15:55:10.203Z,1.47
2018-12-25T15:58:00.310Z,1.47
2018-12-25T16:00:50.447Z,1.46
2018-12-25T16:03:40.209Z,1.45
2018-12-25T16:06:30.056Z,1.44
2018-12-25T16:09:19.793Z,1.40
2018-12-25T16:12:09.559Z,1.37
2018-12-25T16:14:59.323Z,1.33
2018-12-25T16:17:49.707Z,1.31
2018-12-25T16:20:39.530Z,1.23
2018-12-25T16:23:29.599Z,1.12
2018-12-25T16:26:38.127Z,1.07
2018-12-25T16:29:29.509Z,1.05
2018-12-25T16:32:19.763Z,0.99
2018-12-25T16:35:09.589Z,1.00
2018-12-25T16:37:59.332Z,0.98
2018-12-25T16:40:49.071Z,0.98
2018-12-25T16:43:39.081Z,0.97
2018-12-25T16:46:28.807Z,0.93
2018-12-25T16:49:18.639Z,0.81
2018-12-25T16:55:03.774Z,0.56
2018-12-25T16:57:53.524Z,0.35
2018-12-25T17:00:43.339Z,0.22
2018-12-25T17:03:33.084Z,0.14
2018-12-25T17:06:23.144Z,0.14
2018-12-25T17:09:12.902Z,0.15
2018-12-25T17:12:02.623Z,0.14
2018-12-25T17:14:52.375Z,-0.01
2018-12-25T17:18:01.395Z,-0.14
2018-12-25T17:20:43.519Z,-0.35
2018-12-25T17:23:33.290Z,-0.60
2018-12-25T17:26:23.537Z,-0.74
2018-12-25T17:29:13.280Z,-0.82
2018-12-25T17:32:03.026Z,-0.85
2018-12-25T17:35:11.880Z,-0.92
2018-12-25T17:38:01.958Z,-0.69
2018-12-25T17:40:52.083Z,-0.46
2018-12-25T17:43:42.189Z,-0.23
2018-12-25T17:46:31.922Z,-0.14
2018-12-25T17:49:21.671Z,-0.20
2018-12-25T17:52:11.765Z,-0.31
2018-12-25T17:55:01.863Z,-0.41
2018-12-25T17:57:51.609Z,-0.41
2018-12-25T18:00:41.363Z,-0.35
2018-12-25T18:03:31.416Z,-0.40
2018-12-25T18:06:21.446Z,-0.61
2018-12-25T18:09:11.183Z,-0.75
2018-12-25T18:12:00.927Z,-0.78
2018-12-25T18:14:50.717Z,-0.85
2018-12-25T18:17:40.452Z,-0.96
2018-12-25T18:20:23.303Z,-1.06
2018-12-25T18:23:13.568Z,-1.16
2018-12-25T18:26:03.631Z,-1.21
2018-12-25T18:28:53.718Z,-1.18
2018-12-25T18:31:43.720Z,-1.17
2018-12-25T18:34:33.472Z,-1.30
2018-12-25T18:37:23.206Z,-1.36
2018-12-25T18:40:12.970Z,-1.37
2018-12-25T18:43:02.705Z,-1.39
2018-12-25T18:45:52.469Z,-1.46
2018-12-25T18:48:42.550Z,-1.57
2018-12-25T18:51:32.299Z,-1.58
2018-12-25T18:54:27.759Z,-1.62
2018-12-25T18:57:13.922Z,-1.66
2018-12-25T19:00:03.667Z,-1.72
2018-12-25T19:02:53.435Z,-1.77
2018-12-25T19:05:43.481Z,-1.74
2018-12-25T19:08:33.216Z,-1.74
2018-12-25T19:11:23.143Z,-1.75
2018-12-25T19:14:13.239Z,-1.73
2018-12-25T19:17:03.459Z,-1.69
2018-12-25T19:19:45.914Z,-1.69
2018-12-25T19:22:54.942Z,-1.75
2018-12-25T19:25:44.684Z,-1.80
2018-12-25T19:28:34.426Z,-1.88
2018-12-25T19:31:24.485Z,-1.88
2018-12-25T19:34:14.232Z,-1.89
2018-12-25T19:37:04.307Z,-1.87
2018-12-25T19:39:54.114Z,-1.87
2018-12-25T19:42:43.942Z,-1.86
2018-12-25T19:45:34.306Z,-1.91
2018-12-25T19:48:24.047Z,-1.96
2018-12-25T19:51:14.515Z,-1.89
2018-12-25T19:54:23.191Z,-1.91
2018-12-25T19:57:12.938Z,-1.90
2018-12-25T20:00:03.090Z,-1.91
2018-12-25T20:03:30.957Z,-1.95
2018-12-25T20:06:55.614Z,-1.90
2018-12-25T20:10:23.454Z,-2.00
2018-12-25T20:13:51.560Z,-2.03
2018-12-25T20:17:19.668Z,-2.05
2018-12-25T20:20:20.915Z,-1.97
2018-12-25T20:23:48.765Z,-1.93
2018-12-25T20:27:16.615Z,-1.96
2018-12-25T20:30:44.479Z,-2.05
2018-12-25T20:34:12.325Z,-2.10
2018-12-25T20:37:40.182Z,-2.03
2018-12-25T20:41:08.017Z,-2.08
2018-12-25T20:44:35.872Z,-2.10
2018-12-25T20:48:03.719Z,-2.16
2018-12-25T20:51:31.555Z,-2.24
2018-12-25T20:55:01.475Z,-2.33
2018-12-25T20:58:29.011Z,-2.36
2018-12-25T21:01:57.085Z,-2.33
2018-12-25T21:05:24.937Z,-2.35
2018-12-25T21:08:52.784Z,-2.38
2018-12-25T21:12:20.620Z,-2.45
2018-12-25T21:15:48.460Z,-2.51
2018-12-25T21:18:50.336Z,-2.54
2018-12-25T21:22:26.219Z,-2.51
2018-12-25T21:25:54.096Z,-2.46
2018-12-25T21:28:43.924Z,-2.44
2018-12-25T21:31:33.824Z,-2.57
2018-12-25T21:34:23.729Z,-2.68
2018-12-25T21:40:44.001Z,-2.82
2018-12-25T21:43:53.237Z,-2.85
2018-12-25T21:46:43.349Z,-2.85
2018-12-25T21:49:33.360Z,-2.79
2018-12-25T21:52:23.719Z,-2.70
2018-12-25T21:55:18.531Z,-2.59
2018-12-25T21:58:05.157Z,-2.50
2018-12-25T22:00:55.155Z,-2.50
2018-12-25T22:03:45.591Z,-2.56
2018-12-25T22:06:35.417Z,-2.63
2018-12-25T22:09:25.241Z,-2.73
2018-12-25T22:15:23.724Z,-2.95
2018-12-25T22:18:13.456Z,-2.87
2018-12-25T22:23:58.849Z,-2.84
2018-12-25T22:26:48.584Z,-2.93
2018-12-25T22:29:38.313Z,-3.10
2018-12-25T22:32:28.066Z,-3.19
2018-12-25T22:35:18.168Z,-3.13
2018-12-25T22:38:07.904Z,-3.11
2018-12-25T22:40:57.672Z,-3.12
2018-12-25T22:43:47.405Z,-3.15
2018-12-25T22:46:37.231Z,-3.15
2018-12-25T22:49:27.358Z,-3.20
2018-12-25T22:52:17.107Z,-3.22
2018-12-25T22:55:26.331Z,-3.23
2018-12-25T22:58:16.356Z,-3.30
2018-12-25T23:01:06.342Z,-3.20
2018-12-25T23:03:56.638Z,-3.20
2018-12-25T23:06:46.398Z,-3.30
2018-12-25T23:09:36.132Z,-3.29
2018-12-25T23:12:25.874Z,-3.31
2018-12-25T23:15:15.629Z,-3.34
2018-12-25T23:18:05.460Z,-3.35
2018-12-25T23:20:55.192Z,-3.37
2018-12-25T23:23:44.946Z,-3.33
2018-12-25T23:29:43.608Z,-3.24
2018-12-25T23:32:33.428Z,-3.35
2018-12-25T23:35:23.155Z,-3.48
2018-12-25T23:38:12.908Z,-3.47
2018-12-25T23:41:02.636Z,-3.45
2018-12-25T23:43:52.641Z,-3.50
2018-12-25T23:46:42.458Z,-3.51
2018-12-25T23:49:32.217Z,-3.63
2018-12-25T23:52:21.951Z,-3.74
2018-12-25T23:55:12.289Z,-3.70
2018-12-25T23:58:02.300Z,-3.67
